Time;durP1;ratioP1;P1;durP2;ratioP2;P2;SDS_P1;SDS_P2;PMS_P1;PMS_P2;Temp;Humidity;BMP_temperature;BMP_pressure;BME280_temperature;BME280_humidity;BME280_pressure;Samples;Min_cycle;Max_cycle;Signal;HPM_P1;HPM_P2
2021/11/03 00:00:39;;;;;;;;;;;;;;;22.03;31.38;97332.66;4874424;29;1039;-81
2021/11/03 00:07:13;;;;;;;;;;;;;;;22.42;33.11;97341.69;4862276;29;1016;-82
2021/11/03 00:10:41;;;;;;;;;;;;;;;;;;;;;
2021/11/03 00:13:38;;;;;;;;;;;;;;;22.22;32.91;97345.69;4806480;30;856;-82
2021/11/03 00:27:28;;;;;;;;;;;;;;;;;;;;;
2021/11/03 00:51:07;;;;;;;;;;;;;;;22.27;31.62;97373.41;4933965;29;1037;-78
2021/11/03 01:04:01;;;;;;;;;;;;;;;22.34;33.45;97376.00;5081604;28;1407;-79
2021/11/03 01:06:47;;;;;;;;;;;;;;;22.44;33.91;97379.66;5066935;28;1273;-79
2021/11/03 01:13:01;;;;;;;;;;;;;;;22.27;32.97;97381.91;5025841;28;912;-80
2021/11/03 01:16:00;;;;;;;;;;;;;;;22.28;32.23;97389.19;5010262;28;1890;-77
2021/11/03 01:25:54;;;;;;;;;;;;;;;22.13;32.18;97404.38;4948610;29;903;-77
2021/11/03 01:35:54;;;;;;;;;;;;;;;22.18;31.73;97424.41;4800267;30;1981;-78
2021/11/03 01:38:37;;;;;;;;;;;;;;;22.11;31.71;97441.66;4798034;30;860;-80
2021/11/03 01:42:01;;;;;;;;;;;;;;;22.15;31.70;97447.97;4799879;30;1378;-80
2021/11/03 01:44:36;;;;;;;;;;;;;;;22.34;32.84;97444.00;4745180;30;1097;-80
2021/11/03 01:47:55;;;;;;;;;;;;;;;22.37;33.59;97450.78;4740284;30;1054;-80
2021/11/03 01:50:53;;;;;;;;;;;;;;;22.25;33.25;97451.66;4701705;30;1057;-79
2021/11/03 01:53:59;;;;;;;;;;;;;;;22.34;32.54;97448.91;4683640;30;911;-79
2021/11/03 02:00:49;;;;;;;;;;;;;;;22.05;32.14;97455.59;4714897;30;1386;-80
2021/11/03 02:03:16;;;;;;;;;;;;;;;22.17;32.16;97461.69;4715962;30;1284;-80
2021/11/03 02:05:44;;;;;;;;;;;;;;;22.06;32.14;97456.38;4734914;30;1268;-78
2021/11/03 02:08:10;;;;;;;;;;;;;;;22.07;32.04;97466.44;4706740;30;978;-79
2021/11/03 02:10:36;;;;;;;;;;;;;;;22.17;31.82;97479.47;4758383;30;1200;-79
2021/11/03 02:13:01;;;;;;;;;;;;;;;22.21;31.54;97485.00;4738245;30;1076;-80
2021/11/03 02:15:27;;;;;;;;;;;;;;;22.07;31.81;97480.63;4734002;30;1877;-80
2021/11/03 02:17:53;;;;;;;;;;;;;;;22.15;32.09;97476.31;4750879;30;1138;-79
2021/11/03 02:20:19;;;;;;;;;;;;;;;22.18;31.86;97481.06;4750730;30;1287;-80
2021/11/03 02:23:04;;;;;;;;;;;;;;;22.12;31.79;97476.44;4768856;30;1257;-80
2021/11/03 02:25:33;;;;;;;;;;;;;;;21.97;31.90;97476.94;4815314;29;919;-79
2021/11/03 02:27:59;;;;;;;;;;;;;;;21.92;31.89;97473.91;4820949;29;1132;-80
2021/11/03 02:30:25;;;;;;;;;;;;;;;22.00;31.93;97476.00;4807034;29;1366;-80
2021/11/03 02:32:54;;;;;;;;;;;;;;;21.83;31.87;97472.59;4807510;29;952;-80
2021/11/03 02:35:19;;;;;;;;;;;;;;;21.86;31.83;97476.53;4825746;29;1884;-78
2021/11/03 02:37:47;;;;;;;;;;;;;;;21.91;31.50;97467.44;4858684;29;1076;-80
2021/11/03 02:40:13;;;;;;;;;;;;;;;22.09;31.41;97464.75;4859265;29;1188;-80
2021/11/03 02:42:41;;;;;;;;;;;;;;;22.22;31.03;97476.03;4858892;29;1143;-80
2021/11/03 02:45:09;;;;;;;;;;;;;;;21.92;31.35;97468.25;4843734;29;1183;-80
2021/11/03 02:47:34;;;;;;;;;;;;;;;22.44;32.22;97475.25;4840983;29;1621;-80
2021/11/03 02:50:00;;;;;;;;;;;;;;;22.33;32.88;97487.78;4854101;29;1084;-80
2021/11/03 02:52:26;;;;;;;;;;;;;;;22.17;33.48;97495.69;4841238;29;1047;-79
2021/11/03 02:54:52;;;;;;;;;;;;;;;22.21;33.37;97497.13;4836834;29;1908;-80
2021/11/03 02:57:18;;;;;;;;;;;;;;;22.06;32.85;97501.72;4887158;29;1333;-80
2021/11/03 02:59:43;;;;;;;;;;;;;;;22.08;32.77;97499.22;4884082;29;1295;-80
2021/11/03 03:02:09;;;;;;;;;;;;;;;22.05;32.52;97500.13;4915358;29;1313;-79
2021/11/03 03:04:37;;;;;;;;;;;;;;;22.02;32.73;97506.72;4900842;29;1482;-79
2021/11/03 03:07:04;;;;;;;;;;;;;;;22.06;32.17;97508.16;4915451;29;1277;-79
2021/11/03 03:09:29;;;;;;;;;;;;;;;22.00;32.38;97514.88;4910220;29;1122;-80
2021/11/03 03:11:57;;;;;;;;;;;;;;;21.97;32.41;97515.81;4930322;29;1437;-79
2021/11/03 03:14:25;;;;;;;;;;;;;;;21.92;31.90;97530.56;4898152;29;1288;-80
2021/11/03 03:16:51;;;;;;;;;;;;;;;21.99;32.09;97536.75;4896481;29;1922;-79
2021/11/03 03:19:17;;;;;;;;;;;;;;;22.13;31.85;97538.34;4879499;29;1205;-80
2021/11/03 03:21:42;;;;;;;;;;;;;;;22.08;31.79;97545.34;4893867;29;1181;-80
2021/11/03 03:24:09;;;;;;;;;;;;;;;22.14;31.29;97550.44;4880142;29;1336;-80
2021/11/03 03:26:35;;;;;;;;;;;;;;;22.07;32.10;97545.78;4877801;29;1241;-80
2021/11/03 03:29:02;;;;;;;;;;;;;;;22.06;33.07;97552.72;4878441;29;1170;-79
2021/11/03 03:31:28;;;;;;;;;;;;;;;22.19;33.54;97556.31;4892472;29;1127;-80
2021/11/03 03:33:54;;;;;;;;;;;;;;;22.27;33.79;97554.78;4879388;29;953;-80
2021/11/03 03:36:20;;;;;;;;;;;;;;;22.16;33.02;97545.09;4874740;29;1899;-80
2021/11/03 03:38:47;;;;;;;;;;;;;;;22.27;32.26;97562.50;4841743;29;1134;-79
2021/11/03 03:41:12;;;;;;;;;;;;;;;22.02;32.40;97547.19;4845155;29;1139;-79
2021/11/03 03:43:40;;;;;;;;;;;;;;;22.21;32.02;97565.16;4823437;29;1306;-80
2021/11/03 03:46:07;;;;;;;;;;;;;;;22.34;31.73;97567.94;4840944;29;935;-80
2021/11/03 03:48:32;;;;;;;;;;;;;;;22.18;31.98;97568.91;4805138;29;1074;-80
2021/11/03 03:50:58;;;;;;;;;;;;;;;22.20;31.98;97579.78;4831168;29;967;-80
2021/11/03 03:53:23;;;;;;;;;;;;;;;21.96;32.48;97582.19;4819664;29;1174;-80
2021/11/03 03:55:50;;;;;;;;;;;;;;;22.09;32.36;97568.81;4790855;30;1896;-79
2021/11/03 03:58:17;;;;;;;;;;;;;;;22.06;32.34;97572.53;4752443;30;1105;-79
2021/11/03 04:00:44;;;;;;;;;;;;;;;22.05;32.19;97579.47;4751242;30;1317;-79
2021/11/03 04:03:09;;;;;;;;;;;;;;;22.13;31.84;97585.72;4741895;30;1153;-79
2021/11/03 04:05:35;;;;;;;;;;;;;;;22.30;31.74;97585.06;4767957;30;1155;-80
2021/11/03 04:08:00;;;;;;;;;;;;;;;21.99;32.13;97587.75;4781150;30;1202;-81
2021/11/03 04:10:26;;;;;;;;;;;;;;;21.96;32.29;97588.66;4803818;29;1117;-79
2021/11/03 04:12:52;;;;;;;;;;;;;;;22.18;33.34;97593.63;4821688;29;1277;-80
2021/11/03 04:15:18;;;;;;;;;;;;;;;22.23;34.14;97590.22;4821174;29;1973;-79
2021/11/03 04:17:44;;;;;;;;;;;;;;;22.28;34.41;97590.41;4808356;29;1471;-80
2021/11/03 04:20:10;;;;;;;;;;;;;;;22.24;34.14;97592.56;4836873;29;1241;-79
2021/11/03 04:22:36;;;;;;;;;;;;;;;22.26;33.50;97584.41;4854349;29;1022;-80
2021/11/03 04:25:01;;;;;;;;;;;;;;;22.27;33.17;97576.69;4846187;29;1159;-80
2021/11/03 04:27:27;;;;;;;;;;;;;;;22.30;32.86;97576.56;4854381;29;1319;-80
2021/11/03 04:29:53;;;;;;;;;;;;;;;22.21;32.85;97587.03;4855765;29;1083;-79
2021/11/03 04:32:19;;;;;;;;;;;;;;;22.01;32.97;97590.13;4837427;29;1148;-80
2021/11/03 04:34:45;;;;;;;;;;;;;;;22.04;33.20;97595.66;4875053;29;1920;-80
2021/11/03 04:37:11;;;;;;;;;;;;;;;22.18;32.63;97605.75;4849926;29;1323;-79
2021/11/03 04:39:38;;;;;;;;;;;;;;;22.30;32.28;97604.91;4851276;29;1143;-80
2021/11/03 04:42:04;;;;;;;;;;;;;;;22.26;32.56;97600.59;4914218;29;1087;-79
2021/11/03 04:44:29;;;;;;;;;;;;;;;22.12;32.41;97601.91;4883532;29;1102;-80
2021/11/03 04:46:58;;;;;;;;;;;;;;;22.05;32.78;97610.63;4910470;29;1166;-80
2021/11/03 04:49:28;;;;;;;;;;;;;;;22.01;32.35;97609.94;4894337;29;1133;-80
2021/11/03 04:51:54;;;;;;;;;;;;;;;22.29;32.95;97620.34;4896180;29;858;-79
2021/11/03 04:54:23;;;;;;;;;;;;;;;22.39;33.68;97631.75;4924770;29;1218;-80
2021/11/03 04:56:52;;;;;;;;;;;;;;;22.29;34.40;97634.50;4930293;29;1973;-79
2021/11/03 04:59:17;;;;;;;;;;;;;;;22.38;34.82;97624.47;4918600;29;1121;-80
2021/11/03 05:01:44;;;;;;;;;;;;;;;22.33;33.89;97629.50;4929877;29;1318;-80
2021/11/03 05:04:09;;;;;;;;;;;;;;;22.26;33.35;97626.91;4966126;29;1245;-80
2021/11/03 05:06:37;;;;;;;;;;;;;;;22.15;33.51;97635.00;4907339;29;1125;-80
2021/11/03 05:09:05;;;;;;;;;;;;;;;22.00;33.01;97599.88;4900390;29;1203;-80
2021/11/03 05:11:31;;;;;;;;;;;;;;;22.12;33.16;97633.06;4892555;29;1663;-80
2021/11/03 05:13:56;;;;;;;;;;;;;;;22.08;33.01;97641.69;4913031;29;1645;-80
2021/11/03 05:16:25;;;;;;;;;;;;;;;22.10;32.92;97632.72;4877335;29;1953;-80
2021/11/03 05:18:53;;;;;;;;;;;;;;;22.14;32.61;97641.13;4876139;29;967;-79
2021/11/03 05:21:19;;;;;;;;;;;;;;;21.99;32.88;97649.28;4877739;29;1111;-79
2021/11/03 05:23:45;;;;;;;;;;;;;;;22.12;32.15;97652.09;4878425;29;1637;-80
2021/11/03 05:26:12;;;;;;;;;;;;;;;22.18;31.93;97651.09;4881773;29;918;-80
2021/11/03 05:28:37;;;;;;;;;;;;;;;22.16;31.89;97659.25;4878947;29;1002;-80
2021/11/03 05:31:03;;;;;;;;;;;;;;;21.83;32.50;97653.84;4865989;29;924;-79
2021/11/03 05:33:29;;;;;;;;;;;;;;;22.30;33.40;97661.59;4860268;29;896;-79
2021/11/03 05:35:54;;;;;;;;;;;;;;;22.28;34.14;97661.28;4893225;29;1970;-79
2021/11/03 05:38:20;;;;;;;;;;;;;;;22.38;34.22;97664.16;4897150;29;1017;-80
2021/11/03 05:40:45;;;;;;;;;;;;;;;22.57;34.09;97661.03;4904923;29;1679;-79
2021/11/03 05:43:11;;;;;;;;;;;;;;;22.20;34.00;97665.59;4916382;29;998;-80
2021/11/03 05:45:36;;;;;;;;;;;;;;;22.18;33.72;97670.94;4932685;29;887;-80
2021/11/03 05:48:02;;;;;;;;;;;;;;;22.15;33.06;97674.66;4997208;28;962;-80
2021/11/03 05:50:28;;;;;;;;;;;;;;;22.09;32.78;97680.09;5016084;28;1502;-79
2021/11/03 05:52:53;;;;;;;;;;;;;;;22.22;32.67;97691.41;5013176;28;1036;-80
2021/11/03 05:55:19;;;;;;;;;;;;;;;22.35;32.50;97695.03;5013651;28;1891;-79
2021/11/03 05:57:45;;;;;;;;;;;;;;;22.26;32.56;97697.75;5014008;28;1056;-79
2021/11/03 06:00:13;;;;;;;;;;;;;;;22.33;32.12;97696.75;5012696;28;1003;-79
2021/11/03 06:02:39;;;;;;;;;;;;;;;22.30;32.08;97709.78;5013696;28;1699;-80
2021/11/03 06:05:05;;;;;;;;;;;;;;;22.16;32.65;97718.75;5013151;28;1077;-80
2021/11/03 06:07:30;;;;;;;;;;;;;;;22.09;32.65;97722.59;5014479;28;946;-80
2021/11/03 06:09:56;;;;;;;;;;;;;;;22.06;32.94;97719.88;5013082;28;1071;-80
2021/11/03 06:12:21;;;;;;;;;;;;;;;22.24;32.54;97720.09;5013880;28;1609;-80
2021/11/03 06:14:47;;;;;;;;;;;;;;;22.26;32.12;97725.31;5012223;28;1942;-79
2021/11/03 06:17:12;;;;;;;;;;;;;;;22.27;32.16;97726.91;4994852;28;1319;-80
2021/11/03 06:19:38;;;;;;;;;;;;;;;21.97;32.69;97725.44;4995689;28;989;-80
2021/11/03 06:22:03;;;;;;;;;;;;;;;22.25;32.17;97730.19;5014388;28;1597;-80
2021/11/03 06:24:30;;;;;;;;;;;;;;;22.28;32.01;97737.78;5027334;28;1006;-80
2021/11/03 06:26:57;;;;;;;;;;;;;;;22.24;32.31;97745.63;4969106;28;969;-80
2021/11/03 06:29:22;;;;;;;;;;;;;;;22.16;31.99;97738.59;5032473;28;979;-80
2021/11/03 06:31:47;;;;;;;;;;;;;;;22.12;32.14;97746.41;5033367;28;1627;-80
2021/11/03 06:34:13;;;;;;;;;;;;;;;22.17;31.99;97757.16;5032013;28;942;-80
2021/11/03 06:36:38;;;;;;;;;;;;;;;22.03;32.07;97751.97;5033753;28;2012;-80
2021/11/03 06:39:04;;;;;;;;;;;;;;;22.13;32.01;97753.69;5015461;28;936;-80
2021/11/03 06:41:30;;;;;;;;;;;;;;;22.11;31.82;97753.31;5033092;28;1713;-80
2021/11/03 06:43:56;;;;;;;;;;;;;;;22.08;31.84;97754.22;5031085;28;975;-80
2021/11/03 06:46:22;;;;;;;;;;;;;;;22.07;31.60;97753.44;5033614;28;933;-80
2021/11/03 06:48:47;;;;;;;;;;;;;;;22.10;31.51;97752.53;5063548;28;913;-80
2021/11/03 06:51:13;;;;;;;;;;;;;;;22.12;31.37;97754.91;5074897;28;1547;-80
2021/11/03 06:53:38;;;;;;;;;;;;;;;22.00;31.59;97770.63;5072869;28;1015;-80
2021/11/03 06:56:04;;;;;;;;;;;;;;;22.03;32.29;97775.41;5075147;28;1895;-80
2021/11/03 06:58:29;;;;;;;;;;;;;;;22.40;32.63;97777.91;5072420;28;826;-81
2021/11/03 07:00:55;;;;;;;;;;;;;;;22.34;33.79;97772.81;5075270;28;1643;-80
2021/11/03 07:03:22;;;;;;;;;;;;;;;22.35;34.63;97776.44;5071973;28;742;-80
2021/11/03 07:05:48;;;;;;;;;;;;;;;22.34;34.57;97775.66;5056327;28;1190;-79
2021/11/03 07:08:14;;;;;;;;;;;;;;;22.27;34.11;97789.25;5072379;28;937;-79
2021/11/03 07:10:40;;;;;;;;;;;;;;;22.40;33.32;97792.88;5074032;28;1567;-79
2021/11/03 07:13:05;;;;;;;;;;;;;;;22.30;33.06;97794.81;5053306;28;921;-80
2021/11/03 07:15:31;;;;;;;;;;;;;;;22.42;32.80;97800.91;5036749;28;1918;-80
2021/11/03 07:17:56;;;;;;;;;;;;;;;22.34;32.69;97808.88;5052814;28;976;-81
2021/11/03 07:20:22;;;;;;;;;;;;;;;22.19;32.92;97811.38;5052911;28;1000;-79
2021/11/03 07:22:47;;;;;;;;;;;;;;;22.19;32.57;97828.38;5071033;28;1678;-79
2021/11/03 07:25:14;;;;;;;;;;;;;;;22.30;32.22;97834.50;5073305;28;1049;-80
2021/11/03 07:27:39;;;;;;;;;;;;;;;22.29;32.18;97849.13;5012601;28;1297;-80
2021/11/03 07:30:05;;;;;;;;;;;;;;;22.19;32.15;97851.03;5011780;28;1065;-80
2021/11/03 07:32:31;;;;;;;;;;;;;;;22.07;32.54;97848.94;5026906;28;1593;-80
2021/11/03 07:34:56;;;;;;;;;;;;;;;22.19;32.06;97845.38;5031031;28;1968;-80
2021/11/03 07:37:22;;;;;;;;;;;;;;;22.03;32.28;97846.25;5031872;28;932;-80
2021/11/03 07:39:47;;;;;;;;;;;;;;;22.19;32.07;97845.38;5030617;28;910;-80
2021/11/03 07:42:13;;;;;;;;;;;;;;;22.12;31.88;97856.91;5019884;28;1656;-80
2021/11/03 07:44:45;;;;;;;;;;;;;;;22.14;31.80;97854.44;5009807;28;1242;-79
2021/11/03 07:47:10;;;;;;;;;;;;;;;22.13;31.70;97847.19;5012526;28;920;-80
2021/11/03 07:49:36;;;;;;;;;;;;;;;22.25;31.37;97860.56;5010273;28;927;-80
2021/11/03 07:52:01;;;;;;;;;;;;;;;22.21;31.74;97867.59;5012401;28;1623;-80
2021/11/03 07:54:27;;;;;;;;;;;;;;;22.17;31.90;97875.41;5010668;28;954;-80
2021/11/03 07:56:52;;;;;;;;;;;;;;;22.25;31.51;97880.41;5012014;28;1887;-80
2021/11/03 07:59:18;;;;;;;;;;;;;;;22.29;31.40;97880.31;5010212;28;1463;-80
2021/11/03 08:01:43;;;;;;;;;;;;;;;22.24;31.44;97893.00;5011702;28;925;-80
2021/11/03 08:04:09;;;;;;;;;;;;;;;21.93;31.64;97883.41;5010753;28;1200;-80
2021/11/03 08:06:35;;;;;;;;;;;;;;;22.15;31.21;97895.69;5012064;28;1067;-79
2021/11/03 08:09:05;;;;;;;;;;;;;;;22.22;31.06;97892.63;5010362;28;945;-79
2021/11/03 08:11:34;;;;;;;;;;;;;;;22.14;31.24;97893.31;4973369;29;1025;-80
2021/11/03 08:14:00;;;;;;;;;;;;;;;22.14;31.28;97894.13;4951640;29;949;-80
2021/11/03 08:16:26;;;;;;;;;;;;;;;22.13;31.28;97886.88;4969223;28;1963;-79
2021/11/03 08:18:51;;;;;;;;;;;;;;;22.17;30.98;97889.56;4970866;29;1060;-80
2021/11/03 08:21:17;;;;;;;;;;;;;;;22.26;30.95;97884.03;4898564;29;1675;-80
2021/11/03 08:23:42;;;;;;;;;;;;;;;22.15;30.97;97895.69;4894904;29;978;-79
2021/11/03 08:26:08;;;;;;;;;;;;;;;22.18;30.81;97900.47;4897459;29;1002;-80
2021/11/03 08:28:33;;;;;;;;;;;;;;;22.21;31.38;97896.72;4894944;29;922;-80
2021/11/03 08:30:59;;;;;;;;;;;;;;;22.34;32.21;97906.03;4942395;29;1702;-80
2021/11/03 08:33:25;;;;;;;;;;;;;;;22.27;33.39;97891.28;4932234;29;1105;-80
2021/11/03 08:35:52;;;;;;;;;;;;;;;22.23;33.95;97897.06;4918745;29;1959;-80
2021/11/03 08:38:18;;;;;;;;;;;;;;;21.99;33.66;97898.59;4875762;29;882;-79
2021/11/03 08:40:47;;;;;;;;;;;;;;;22.11;33.20;97903.50;4866095;29;1594;-79
2021/11/03 08:43:18;;;;;;;;;;;;;;;22.05;32.71;97925.13;4858708;29;1574;-80
2021/11/03 08:45:50;;;;;;;;;;;;;;;22.20;32.17;97900.81;4845226;29;914;-79
2021/11/03 08:48:15;;;;;;;;;;;;;;;22.18;32.07;97911.81;4842787;29;926;-80
2021/11/03 08:50:41;;;;;;;;;;;;;;;22.36;31.85;97906.38;4841663;29;1006;-81
2021/11/03 08:53:06;;;;;;;;;;;;;;;22.17;32.07;97898.88;4887263;29;1710;-80
2021/11/03 08:55:32;;;;;;;;;;;;;;;21.88;32.60;97898.13;4907591;29;1921;-80
2021/11/03 08:57:58;;;;;;;;;;;;;;;22.04;32.22;97898.03;4916746;29;919;-80
2021/11/03 09:00:25;;;;;;;;;;;;;;;22.12;31.89;97910.75;4918748;29;948;-79
2021/11/03 09:02:51;;;;;;;;;;;;;;;22.05;32.06;97908.91;4917759;29;1604;-80
2021/11/03 09:05:16;;;;;;;;;;;;;;;22.21;31.57;97910.88;4902505;29;1061;-80
2021/11/03 09:07:42;;;;;;;;;;;;;;;22.22;31.42;97912.47;4935167;29;883;-80
2021/11/03 09:10:08;;;;;;;;;;;;;;;22.20;31.63;97914.97;4986704;28;897;-80
2021/11/03 09:12:33;;;;;;;;;;;;;;;22.19;31.34;97921.91;4977867;28;1625;-80
2021/11/03 09:14:59;;;;;;;;;;;;;;;22.12;31.63;97924.94;4992903;28;1902;-80
2021/11/03 09:17:26;;;;;;;;;;;;;;;22.15;31.09;97912.69;4994972;28;1658;-80
2021/11/03 09:19:52;;;;;;;;;;;;;;;22.11;31.25;97917.66;4973710;28;990;-79
2021/11/03 09:22:17;;;;;;;;;;;;;;;22.14;31.19;97913.94;4959658;28;907;-79
2021/11/03 09:24:42;;;;;;;;;;;;;;;22.07;31.37;97922.63;4973834;28;1476;-79
2021/11/03 09:27:14;;;;;;;;;;;;;;;22.20;31.46;97920.66;4961035;29;976;-80
2021/11/03 09:29:43;;;;;;;;;;;;;;;22.32;32.52;97924.72;4969974;28;952;-80
2021/11/03 09:32:11;;;;;;;;;;;;;;;22.36;33.01;97929.06;4972286;28;939;-80
2021/11/03 09:34:38;;;;;;;;;;;;;;;22.40;33.40;97920.44;4972756;28;1579;-79
2021/11/03 09:37:05;;;;;;;;;;;;;;;22.11;33.17;97917.66;4918681;29;1887;-79
2021/11/03 09:39:32;;;;;;;;;;;;;;;22.26;32.43;97918.84;4947559;29;940;-80
2021/11/03 09:41:57;;;;;;;;;;;;;;;22.30;31.78;97908.19;4917396;29;1205;-80
2021/11/03 09:44:29;;;;;;;;;;;;;;;22.17;32.13;97910.19;4918359;29;1643;-80
2021/11/03 09:46:55;;;;;;;;;;;;;;;22.25;31.84;97903.06;4919685;29;996;-80
2021/11/03 09:49:29;;;;;;;;;;;;;;;22.26;31.75;97912.38;4920087;29;989;-80
2021/11/03 09:51:57;;;;;;;;;;;;;;;22.14;31.91;97916.00;4938744;29;977;-80
2021/11/03 09:54:23;;;;;;;;;;;;;;;22.16;31.59;97908.63;4938654;29;1791;-80
2021/11/03 09:56:54;;;;;;;;;;;;;;;22.17;31.77;97915.88;4940410;29;1966;-80
2021/11/03 09:59:21;;;;;;;;;;;;;;;22.26;31.53;97918.84;4934934;29;962;-79
2021/11/03 10:01:58;;;;;;;;;;;;;;;22.39;31.38;97918.06;4955549;29;988;-79
2021/11/03 10:04:42;;;;;;;;;;;;;;;22.14;31.48;97916.78;4952612;29;1559;-80
2021/11/03 10:07:07;;;;;;;;;;;;;;;22.22;31.13;97918.13;4934614;29;909;-79
2021/11/03 10:09:36;;;;;;;;;;;;;;;22.14;31.27;97922.44;4953177;29;988;-80
2021/11/03 10:12:02;;;;;;;;;;;;;;;22.23;31.10;97914.09;4937462;29;923;-80
2021/11/03 10:14:27;;;;;;;;;;;;;;;22.18;31.15;97923.16;4916040;29;1930;-79
2021/11/03 10:16:54;;;;;;;;;;;;;;;22.05;31.24;97925.13;4917232;29;1989;-79
2021/11/03 10:19:21;;;;;;;;;;;;;;;22.01;32.54;97930.88;4915239;29;961;-80
2021/11/03 10:21:51;;;;;;;;;;;;;;;22.26;32.98;97924.50;4908577;29;1196;-80
2021/11/03 10:24:16;;;;;;;;;;;;;;;22.47;33.19;97925.88;4915164;29;1664;-79
2021/11/03 10:26:52;;;;;;;;;;;;;;;22.34;33.27;97920.22;4916382;29;955;-80
2021/11/03 10:29:18;;;;;;;;;;;;;;;22.13;33.00;97925.75;4896621;29;1006;-80
2021/11/03 10:31:47;;;;;;;;;;;;;;;22.12;32.69;97930.59;4895717;29;997;-80
2021/11/03 10:34:22;;;;;;;;;;;;;;;22.26;32.11;97924.50;4860110;29;1509;-80
2021/11/03 10:36:56;;;;;;;;;;;;;;;22.20;32.17;97926.31;4898075;29;1915;-80
2021/11/03 10:39:22;;;;;;;;;;;;;;;22.29;31.43;97929.28;4896500;29;1102;-80
2021/11/03 10:42:00;;;;;;;;;;;;;;;22.10;31.77;97927.41;4879277;29;907;-79
2021/11/03 10:44:26;;;;;;;;;;;;;;;22.21;31.91;97925.06;4893256;29;1656;-80
2021/11/03 10:47:19;;;;;;;;;;;;;;;22.05;32.07;97927.94;4861030;29;984;-79
2021/11/03 10:50:24;;;;;;;;;;;;;;;22.12;31.98;97930.59;4845656;29;1000;-79
2021/11/03 10:52:52;;;;;;;;;;;;;;;22.15;31.79;97935.38;4841464;29;937;-80
2021/11/03 10:55:23;;;;;;;;;;;;;;;22.16;31.80;97942.63;4822403;29;1896;-80
2021/11/03 10:57:49;;;;;;;;;;;;;;;22.14;31.58;97942.28;4805948;30;905;-80
2021/11/03 11:00:19;;;;;;;;;;;;;;;22.11;31.56;97934.69;4811007;29;979;-79
2021/11/03 11:03:05;;;;;;;;;;;;;;;22.27;31.28;97937.41;4805109;29;926;-80
2021/11/03 11:05:30;;;;;;;;;;;;;;;22.00;31.63;97922.84;4833654;29;1586;-79
2021/11/03 11:08:03;;;;;;;;;;;;;;;22.14;31.40;97928.13;4821821;29;1544;-79
2021/11/03 11:10:31;;;;;;;;;;;;;;;22.09;31.05;97923.78;4823747;29;981;-80
2021/11/03 11:12:57;;;;;;;;;;;;;;;22.14;30.89;97911.13;4787738;30;1927;-79
2021/11/03 11:15:41;;;;;;;;;;;;;;;22.20;30.81;97903.63;4795976;30;1903;-79
2021/11/03 11:18:16;;;;;;;;;;;;;;;22.01;31.33;97907.41;4804763;30;956;-80
2021/11/03 11:20:43;;;;;;;;;;;;;;;21.92;31.12;97916.59;4802067;29;1617;-78
2021/11/03 11:23:27;;;;;;;;;;;;;;;21.98;31.31;97908.34;4813599;29;1612;-78
2021/11/03 11:26:23;;;;;;;;;;;;;;;22.18;30.78;97911.81;4855616;29;1027;-80
2021/11/03 11:29:05;;;;;;;;;;;;;;;22.29;31.94;97909.44;4894715;29;1010;-79
2021/11/03 11:31:34;;;;;;;;;;;;;;;22.39;32.81;97904.69;4896937;29;1672;-80
2021/11/03 11:34:18;;;;;;;;;;;;;;;22.38;33.23;97908.75;4898985;29;1617;-80
2021/11/03 11:37:00;;;;;;;;;;;;;;;21.91;33.97;97911.38;4903694;29;1953;-80
2021/11/03 11:39:47;;;;;;;;;;;;;;;22.17;32.89;97915.88;4932962;29;1027;-80
2021/11/03 11:42:26;;;;;;;;;;;;;;;22.10;32.58;97905.56;4935685;29;1539;-80
2021/11/03 11:44:59;;;;;;;;;;;;;;;22.21;32.04;97908.06;4938369;29;1594;-79
2021/11/03 11:47:30;;;;;;;;;;;;;;;22.17;31.95;97910.19;4953812;29;1202;-80
2021/11/03 11:49:56;;;;;;;;;;;;;;;22.08;32.03;97907.22;4951947;29;927;-80
2021/11/03 11:52:22;;;;;;;;;;;;;;;22.15;31.74;97907.03;4953859;29;1632;-80
2021/11/03 11:55:06;;;;;;;;;;;;;;;22.21;31.66;97905.22;4936366;29;998;-80
2021/11/03 11:57:32;;;;;;;;;;;;;;;22.30;31.58;97902.53;4953598;29;1035;-80
2021/11/03 12:00:02;;;;;;;;;;;;;;;22.08;31.54;97902.34;4940664;29;1318;-80
2021/11/03 12:02:52;;;;;;;;;;;;;;;22.04;31.62;97900.88;4953547;29;1576;-80
2021/11/03 12:05:20;;;;;;;;;;;;;;;22.12;31.45;97904.28;4952700;29;1115;-80
2021/11/03 12:08:05;;;;;;;;;;;;;;;22.19;31.40;97913.38;4932840;29;902;-79
2021/11/03 12:10:31;;;;;;;;;;;;;;;22.27;31.35;97914.75;4962517;29;964;-76
2021/11/03 12:13:08;;;;;;;;;;;;;;;22.04;31.27;97917.88;4953649;29;1524;-80
2021/11/03 12:15:49;;;;;;;;;;;;;;;22.12;31.53;97927.75;4914802;29;1970;-77
2021/11/03 12:18:37;;;;;;;;;;;;;;;21.97;31.76;97929.41;4913982;29;897;-79
2021/11/03 12:21:03;;;;;;;;;;;;;;;22.18;31.18;97928.81;4897884;29;1584;-79
2021/11/03 12:23:48;;;;;;;;;;;;;;;22.19;31.29;97930.41;4915255;29;1006;-80
2021/11/03 12:26:28;;;;;;;;;;;;;;;22.14;31.20;97921.66;4934688;29;935;-80
2021/11/03 12:28:54;;;;;;;;;;;;;;;22.28;30.70;97932.56;4932170;29;910;-79
2021/11/03 12:31:25;;;;;;;;;;;;;;;22.18;30.95;97928.03;4946988;28;1536;-78
2021/11/03 12:34:03;;;;;;;;;;;;;;;22.18;31.09;97933.69;4951749;29;943;-80
2021/11/03 12:36:29;;;;;;;;;;;;;;;22.18;31.15;97934.47;4953371;29;1993;-80
2021/11/03 12:38:55;;;;;;;;;;;;;;;21.99;30.96;97927.72;4913655;29;981;-79
2021/11/03 12:41:22;;;;;;;;;;;;;;;22.07;31.05;97922.63;4883326;29;1448;-79
2021/11/03 12:43:48;;;;;;;;;;;;;;;22.04;30.91;97929.19;4873218;29;1814;-80
2021/11/03 12:46:15;;;;;;;;;;;;;;;21.99;31.19;97926.91;4877982;29;987;-79
2021/11/03 12:48:48;;;;;;;;;;;;;;;22.04;31.07;97926.38;4875081;29;1650;-78
2021/11/03 12:51:20;;;;;;;;;;;;;;;22.00;31.02;97920.78;4877860;29;1736;-80
2021/11/03 12:53:48;;;;;;;;;;;;;;;22.11;30.74;97923.34;4875488;29;968;-78
2021/11/03 12:56:14;;;;;;;;;;;;;;;22.24;31.46;97932.69;4859649;29;1969;-80
2021/11/03 12:58:41;;;;;;;;;;;;;;;22.38;32.14;97941.97;4838701;29;998;-79
2021/11/03 13:01:18;;;;;;;;;;;;;;;22.41;33.11;97935.41;4840240;29;1777;-80
2021/11/03 13:03:48;;;;;;;;;;;;;;;22.19;33.02;97930.41;4819842;29;890;-79
2021/11/03 13:06:13;;;;;;;;;;;;;;;22.23;32.45;97931.09;4822150;29;1054;-80
2021/11/03 13:08:41;;;;;;;;;;;;;;;22.20;32.15;97937.66;4819869;29;1030;-80
2021/11/03 13:11:29;;;;;;;;;;;;;;;22.20;32.13;97937.66;4822697;29;1644;-79
2021/11/03 13:13:55;;;;;;;;;;;;;;;22.11;32.22;97926.19;4820657;29;1032;-80
2021/11/03 13:16:25;;;;;;;;;;;;;;;22.08;32.04;97935.56;4831598;29;1947;-80
2021/11/03 13:18:51;;;;;;;;;;;;;;;22.16;31.94;97942.63;4858798;29;856;-80
2021/11/03 13:21:25;;;;;;;;;;;;;;;22.09;31.73;97943.59;4887332;29;1810;-80
2021/11/03 13:23:52;;;;;;;;;;;;;;;22.16;31.61;97948.28;4907675;29;983;-80
2021/11/03 13:26:25;;;;;;;;;;;;;;;22.21;31.51;97956.22;4916875;29;925;-80
2021/11/03 13:28:51;;;;;;;;;;;;;;;22.18;31.35;97956.38;4916123;29;841;-80
2021/11/03 13:31:35;;;;;;;;;;;;;;;22.07;31.31;97950.94;4917896;29;1790;-79
2021/11/03 13:34:00;;;;;;;;;;;;;;;22.09;31.36;97959.81;4931752;29;977;-79
2021/11/03 13:36:28;;;;;;;;;;;;;;;22.30;32.49;97964.88;4960044;28;1978;-80
2021/11/03 13:38:56;;;;;;;;;;;;;;;22.44;32.40;97960.03;4989431;28;942;-79
2021/11/03 13:41:25;;;;;;;;;;;;;;;22.28;33.50;97972.25;4990598;28;1574;-80
2021/11/03 13:44:10;;;;;;;;;;;;;;;22.18;33.04;97971.31;4991454;28;898;-78
2021/11/03 13:46:36;;;;;;;;;;;;;;;22.27;32.28;97964.97;4995150;28;904;-80
2021/11/03 13:49:02;;;;;;;;;;;;;;;22.21;32.14;97973.25;4973550;29;1013;-80
2021/11/03 13:51:29;;;;;;;;;;;;;;;22.27;31.44;97971.44;4974797;29;1436;-78
2021/11/03 13:53:56;;;;;;;;;;;;;;;22.24;31.47;97966.69;4973119;29;1691;-80
2021/11/03 13:56:21;;;;;;;;;;;;;;;22.36;31.31;97971.56;4977953;28;1910;-80
2021/11/03 13:59:19;;;;;;;;;;;;;;;22.03;31.68;97964.44;4992816;28;910;-79
2021/11/03 14:01:45;;;;;;;;;;;;;;;22.28;31.11;97975.88;4974984;29;1719;-80
2021/11/03 14:04:15;;;;;;;;;;;;;;;22.16;31.32;97979.47;4973741;29;1067;-80
2021/11/03 14:07:00;;;;;;;;;;;;;;;22.15;31.57;97974.25;4974953;29;1000;-79
2021/11/03 14:09:25;;;;;;;;;;;;;;;22.04;31.68;97972.50;4993189;28;949;-80
2021/11/03 14:11:52;;;;;;;;;;;;;;;22.02;31.69;97968.50;5032765;28;1596;-80
2021/11/03 14:14:18;;;;;;;;;;;;;;;22.04;31.24;97964.00;5032013;28;1037;-80
2021/11/03 14:16:43;;;;;;;;;;;;;;;22.21;30.91;97973.25;4993920;28;1894;-79
2021/11/03 14:19:18;;;;;;;;;;;;;;;22.08;31.00;97975.22;4995988;28;1706;-79
2021/11/03 14:21:43;;;;;;;;;;;;;;;22.07;31.25;97973.63;4997637;28;941;-80
2021/11/03 14:24:09;;;;;;;;;;;;;;;22.12;31.47;97975.94;5011962;28;884;-80